createdAt,value
2018-06-09T00:04:58.480Z,22.17
2018-06-09T00:10:00.687Z,22.13
2018-06-09T00:15:02.940Z,22.16
2018-06-09T00:20:05.169Z,22.07
2018-06-09T00:25:07.390Z,22.07
2018-06-09T00:30:09.569Z,22.12
2018-06-09T00:35:11.759Z,22.06
2018-06-09T00:40:14.034Z,21.99
2018-06-09T00:45:16.226Z,21.90
2018-06-09T00:50:18.437Z,21.91
2018-06-09T00:55:20.578Z,21.87
2018-06-09T01:00:22.782Z,21.88
2018-06-09T01:05:24.996Z,21.82
2018-06-09T01:10:27.194Z,21.74
2018-06-09T01:15:29.365Z,21.70
2018-06-09T01:20:31.568Z,21.65
2018-06-09T01:25:33.770Z,21.67
2018-06-09T01:30:35.932Z,21.63
2018-06-09T01:35:38.088Z,21.48
2018-06-09T01:40:40.301Z,21.44
2018-06-09T01:45:42.466Z,21.33
2018-06-09T01:50:44.652Z,21.26
2018-06-09T01:55:46.604Z,21.17
2018-06-09T02:00:48.807Z,21.11
2018-06-09T02:05:50.972Z,21.08
2018-06-09T02:10:53.163Z,20.98
2018-06-09T02:15:55.326Z,20.91
2018-06-09T02:20:57.537Z,20.90
2018-06-09T02:25:59.714Z,20.93
2018-06-09T02:31:01.905Z,20.87
2018-06-09T02:36:04.732Z,20.77
2018-06-09T02:41:06.940Z,20.67
2018-06-09T02:46:09.164Z,20.64
2018-06-09T02:51:11.351Z,20.71
2018-06-09T02:56:13.545Z,20.71
2018-06-09T03:01:15.722Z,20.80
2018-06-09T03:06:17.908Z,20.82
2018-06-09T03:11:20.056Z,20.84
2018-06-09T03:16:22.236Z,20.77
2018-06-09T03:21:24.406Z,20.78
2018-06-09T03:26:26.562Z,20.85
2018-06-09T03:31:28.695Z,20.76
2018-06-09T03:36:30.843Z,20.83
2018-06-09T03:41:33.065Z,20.81
2018-06-09T03:46:35.200Z,20.83
2018-06-09T03:51:37.386Z,20.91
2018-06-09T03:56:39.614Z,20.97
2018-06-09T04:01:41.817Z,21.00
2018-06-09T04:06:44.019Z,21.00
2018-06-09T04:11:46.209Z,21.07
2018-06-09T04:16:49.515Z,21.20
2018-06-09T04:21:51.682Z,21.36
2018-06-09T04:26:53.869Z,21.47
2018-06-09T04:31:56.063Z,21.59
2018-06-09T04:36:58.214Z,21.72
2018-06-09T04:42:00.401Z,21.80
2018-06-09T04:47:02.601Z,21.83
2018-06-09T04:52:04.823Z,21.93
2018-06-09T04:57:06.989Z,22.01
2018-06-09T05:02:09.167Z,22.04
2018-06-09T05:07:11.353Z,22.29
2018-06-09T05:12:13.545Z,22.44
2018-06-09T05:17:15.713Z,22.64
2018-06-09T05:22:17.876Z,22.68
2018-06-09T05:27:20.051Z,22.75
2018-06-09T05:32:22.231Z,22.92
2018-06-09T05:37:24.409Z,23.00
2018-06-09T05:42:26.620Z,23.02
2018-06-09T05:47:28.790Z,22.99
2018-06-09T05:52:30.970Z,23.00
2018-06-09T05:57:33.132Z,23.03
2018-06-09T06:02:35.346Z,23.09
2018-06-09T06:07:37.602Z,23.13
2018-06-09T06:12:39.823Z,23.13
2018-06-09T06:17:42.065Z,23.13
2018-06-09T06:22:44.260Z,23.04
2018-06-09T06:27:46.462Z,22.96
2018-06-09T06:32:48.641Z,22.87
2018-06-09T06:37:50.861Z,22.96
2018-06-09T06:42:53.070Z,23.22
2018-06-09T06:47:55.258Z,23.47
2018-06-09T06:52:57.424Z,23.77
2018-06-09T06:57:59.609Z,24.02
2018-06-09T07:03:01.773Z,24.30
2018-06-09T07:08:04.030Z,24.53
2018-06-09T07:13:06.197Z,24.72
2018-06-09T07:18:08.392Z,24.79
2018-06-09T07:23:10.572Z,24.98
2018-06-09T07:28:12.740Z,25.14
2018-06-09T07:33:14.967Z,25.39
2018-06-09T07:38:17.153Z,25.61
2018-06-09T07:43:19.373Z,25.72
2018-06-09T07:48:21.595Z,25.76
2018-06-09T07:53:23.790Z,25.96
2018-06-09T07:58:26.020Z,26.07
2018-06-09T08:03:28.237Z,26.30
2018-06-09T08:08:30.434Z,26.50
2018-06-09T08:13:32.618Z,26.61
2018-06-09T08:18:34.819Z,26.70
2018-06-09T08:23:36.979Z,26.76
2018-06-09T08:28:39.159Z,26.90
2018-06-09T08:33:41.347Z,26.99
2018-06-09T08:38:43.542Z,27.09
2018-06-09T08:43:45.844Z,27.17
2018-06-09T08:48:48.094Z,27.30
2018-06-09T08:53:50.328Z,27.33
2018-06-09T08:58:52.567Z,27.32
2018-06-09T09:03:54.753Z,27.35
2018-06-09T09:08:56.924Z,27.53
2018-06-09T09:13:59.162Z,27.66
2018-06-09T09:19:01.336Z,27.33
2018-06-09T09:24:03.556Z,26.82
2018-06-09T09:29:05.743Z,26.53
2018-06-09T09:34:07.911Z,26.21
2018-06-09T09:39:10.086Z,25.92
2018-06-09T09:44:12.276Z,25.77
2018-06-09T09:49:14.459Z,25.53
2018-06-09T09:54:16.625Z,25.45
2018-06-09T09:59:19.015Z,25.42
2018-06-09T10:04:21.206Z,25.38
2018-06-09T10:09:23.457Z,25.44
2018-06-09T10:14:25.639Z,25.33
2018-06-09T10:19:27.841Z,25.24
2018-06-09T10:24:30.039Z,25.09
2018-06-09T10:29:32.248Z,25.11
2018-06-09T10:34:34.453Z,25.07
2018-06-09T10:39:36.710Z,25.01
2018-06-09T10:44:38.952Z,24.88
2018-06-09T10:49:41.161Z,24.79
2018-06-09T10:54:43.351Z,24.76
2018-06-09T10:59:45.532Z,24.73
2018-06-09T11:04:47.733Z,24.66
2018-06-09T11:09:49.960Z,24.64
2018-06-09T11:14:52.218Z,24.59
2018-06-09T11:19:54.437Z,24.58
2018-06-09T11:24:56.642Z,24.60
2018-06-09T11:29:58.900Z,24.63
2018-06-09T11:35:01.044Z,24.65
2018-06-09T11:40:03.298Z,24.73
2018-06-09T11:45:05.565Z,24.95
2018-06-09T11:50:07.771Z,25.16
2018-06-09T11:55:10.026Z,25.25
2018-06-09T12:00:12.247Z,25.46
2018-06-09T12:05:14.418Z,25.52
2018-06-09T12:10:16.635Z,25.66
2018-06-09T12:15:18.908Z,25.61
2018-06-09T12:20:21.106Z,25.65
2018-06-09T12:25:23.360Z,25.55
2018-06-09T12:30:25.575Z,25.61
2018-06-09T12:35:27.774Z,25.70
2018-06-09T12:40:29.982Z,25.73
2018-06-09T12:45:32.213Z,25.81
2018-06-09T12:50:34.462Z,25.87
2018-06-09T12:55:36.690Z,26.06
2018-06-09T13:00:38.880Z,25.94
2018-06-09T13:05:41.096Z,26.11
2018-06-09T13:10:43.333Z,26.29
2018-06-09T13:15:45.554Z,26.13
2018-06-09T13:20:47.789Z,26.26
2018-06-09T13:25:49.998Z,26.08
2018-06-09T13:30:52.200Z,25.95
2018-06-09T13:35:54.476Z,25.98
2018-06-09T13:40:56.570Z,25.89
2018-06-09T13:45:58.934Z,25.86
2018-06-09T13:51:01.145Z,25.76
2018-06-09T13:56:03.404Z,25.88
2018-06-09T14:01:05.690Z,25.80
2018-06-09T14:06:07.916Z,25.90
2018-06-09T14:11:10.102Z,26.02
2018-06-09T14:16:12.368Z,26.23
2018-06-09T14:21:14.615Z,26.32
2018-06-09T14:26:16.821Z,26.28
2018-06-09T14:31:19.058Z,26.30
2018-06-09T14:36:21.303Z,26.31
2018-06-09T14:41:23.477Z,26.30
2018-06-09T14:46:25.757Z,26.16
2018-06-09T14:51:27.923Z,26.08
2018-06-09T14:56:30.114Z,26.20
2018-06-09T15:01:32.296Z,25.96
2018-06-09T15:06:34.571Z,25.76
2018-06-09T15:11:36.784Z,26.20
2018-06-09T15:16:39.051Z,26.13
2018-06-09T15:21:41.204Z,26.11
2018-06-09T15:26:43.368Z,26.49
2018-06-09T15:31:45.596Z,26.40
2018-06-09T15:36:47.817Z,26.50
2018-06-09T15:41:50.013Z,26.60
2018-06-09T15:46:52.258Z,27.51
2018-06-09T15:51:54.472Z,28.40
2018-06-09T15:56:56.692Z,29.00
2018-06-09T16:01:58.887Z,29.67
2018-06-09T16:07:01.167Z,29.59
2018-06-09T16:12:03.428Z,29.43
2018-06-09T16:17:05.595Z,29.18
2018-06-09T16:22:07.819Z,29.07
2018-06-09T16:27:10.037Z,28.87
2018-06-09T16:32:12.292Z,28.12
2018-06-09T16:37:14.562Z,27.89
2018-06-09T16:42:16.756Z,27.56
2018-06-09T16:47:19.082Z,27.52
2018-06-09T16:52:21.311Z,27.47
2018-06-09T16:57:23.527Z,28.12
2018-06-09T17:02:25.711Z,28.27
2018-06-09T17:07:27.967Z,27.95
2018-06-09T17:12:30.174Z,27.84
2018-06-09T17:17:32.464Z,27.80
2018-06-09T17:22:34.762Z,27.60
2018-06-09T17:27:36.924Z,27.98
2018-06-09T17:32:39.136Z,28.36
2018-06-09T17:37:41.332Z,28.20
2018-06-09T17:42:43.571Z,27.67
2018-06-09T17:47:45.807Z,26.99
2018-06-09T17:52:48.014Z,26.48
2018-06-09T17:57:50.209Z,26.32
2018-06-09T18:02:52.431Z,26.06
2018-06-09T18:07:54.653Z,25.97
2018-06-09T18:12:56.830Z,25.92
2018-06-09T18:17:59.034Z,26.12
2018-06-09T18:23:01.336Z,26.14
2018-06-09T18:28:03.663Z,26.09
2018-06-09T18:33:05.833Z,25.92
2018-06-09T18:38:07.988Z,25.70
2018-06-09T18:43:10.192Z,25.71
2018-06-09T18:48:12.423Z,25.65
2018-06-09T18:53:14.630Z,25.55
2018-06-09T18:58:16.887Z,25.48
2018-06-09T19:03:19.100Z,25.51
2018-06-09T19:08:21.344Z,25.39
2018-06-09T19:13:23.569Z,25.33
2018-06-09T19:18:25.812Z,25.35
2018-06-09T19:23:28.006Z,25.43
2018-06-09T19:28:30.285Z,25.38
2018-06-09T19:33:32.617Z,25.31
2018-06-09T19:38:34.847Z,25.24
2018-06-09T19:43:37.109Z,25.16
2018-06-09T19:48:39.413Z,25.16
2018-06-09T19:53:42.131Z,25.29
2018-06-09T19:58:44.622Z,25.34
2018-06-09T20:03:46.928Z,25.29
2018-06-09T20:08:49.204Z,25.10
2018-06-09T20:13:51.410Z,25.08
2018-06-09T20:18:53.604Z,25.03
2018-06-09T20:23:55.821Z,25.14
2018-06-09T20:28:58.077Z,25.07
2018-06-09T20:34:00.401Z,24.97
2018-06-09T20:39:03.927Z,24.98
2018-06-09T20:44:06.116Z,24.99
2018-06-09T20:49:08.823Z,25.03
2018-06-09T20:54:11.074Z,25.15
2018-06-09T20:59:13.297Z,25.14
2018-06-09T21:04:15.565Z,25.14
2018-06-09T21:09:17.774Z,24.93
2018-06-09T21:14:20.041Z,24.81
2018-06-09T21:19:22.207Z,24.71
2018-06-09T21:24:26.363Z,24.74
2018-06-09T21:29:33.712Z,24.65
2018-06-09T21:34:54.202Z,24.46
2018-06-09T21:40:04.597Z,24.60
2018-06-09T21:45:08.846Z,24.79
2018-06-09T21:50:13.289Z,24.84
2018-06-09T21:55:16.336Z,24.87
2018-06-09T22:00:19.379Z,24.93
2018-06-09T22:05:22.437Z,24.95
2018-06-09T22:10:27.261Z,24.92
2018-06-09T22:15:30.045Z,24.88
2018-06-09T22:20:32.948Z,24.57
2018-06-09T22:25:42.765Z,24.84
2018-06-09T22:30:46.344Z,24.77
2018-06-09T22:35:49.311Z,24.70
2018-06-09T22:40:52.047Z,24.57
2018-06-09T22:45:55.445Z,24.67
2018-06-09T22:50:58.551Z,24.39
2018-06-09T22:56:02.192Z,23.95
2018-06-09T23:01:04.958Z,23.84
2018-06-09T23:06:07.883Z,23.79
2018-06-09T23:11:11.363Z,23.66
2018-06-09T23:16:14.489Z,23.63
2018-06-09T23:21:17.388Z,23.53
2018-06-09T23:26:20.744Z,23.42
2018-06-09T23:31:24.205Z,23.51
2018-06-09T23:36:26.453Z,23.54
2018-06-09T23:41:28.623Z,23.44
2018-06-09T23:46:30.812Z,23.43
2018-06-09T23:51:33.011Z,23.44
2018-06-09T23:56:35.151Z,23.37
